ESSP

Norrköping Airport

Norrköping, Sweden
METAR ESSP 241120Z 31014KT CAVOK 11/M00 Q1013
Observed Flight Rules
Sep-24 @ 11:20 UTC (31 minutes ago) Visual Flight Rules
Wind Visibility Clouds
310° at 14 knots 10,000+ meters
  • Clear skies
Temperatures Readings
Current 11°C / 52°F
Dewpoint 0°C / 32°F
Humidity 47%
Altimeter 29.91" Hg
Pressure 1013 hPa
Elevation 8
METAR ESSP 241120Z 31014KT CAVOK 11/M00 Q1013
Observed Flight Rules
Sep-24 @ 11:20 UTC
(31 minutes ago)
VFR
Wind Visibility
310° at 14 knots 10,000+ meters
Clouds
  • Clear skies
Temperature Dewpoint
11°C / 52°F 0°C / 32°F
Humidity Altimeter Pressure
47% 29.91" Hg 1013 hPa